Time;durP1;ratioP1;P1;durP2;ratioP2;P2;SDS_P1;SDS_P2;PMS_P1;PMS_P2;Temp;Humidity;BMP_temperature;BMP_pressure;BME280_temperature;BME280_humidity;BME280_pressure;Samples;Min_cycle;Max_cycle;Signal;HPM_P1;HPM_P2
2022/05/28 00:01:36;;;;;;;5.63;2.17;;;;;;;;;;5044056;28;20194;-71
2022/05/28 00:04:04;;;;;;;5.87;1.97;;;;;;;;;;5042171;28;20178;-71
2022/05/28 00:06:32;;;;;;;7.83;2.40;;;;;;;;;;5043634;28;20231;-72
2022/05/28 00:08:59;;;;;;;8.80;2.20;;;;;;;;;;5030272;28;20197;-71
2022/05/28 00:11:27;;;;;;;15.53;2.63;;;;;;;;;;5057715;28;20178;-72
2022/05/28 00:13:53;;;;;;;8.50;2.20;;;;;;;;;;5015894;28;20194;-71
2022/05/28 00:16:20;;;;;;;6.73;2.20;;;;;;;;;;5048873;28;20189;-71
2022/05/28 00:18:47;;;;;;;9.47;2.40;;;;;;;;;;5049510;28;20189;-72
2022/05/28 00:21:14;;;;;;;8.47;2.30;;;;;;;;;;5050801;28;20173;-71
2022/05/28 00:23:41;;;;;;;6.27;2.00;;;;;;;;;;5049870;28;20671;-71
2022/05/28 00:26:07;;;;;;;6.33;2.07;;;;;;;;;;5046253;28;20189;-71
2022/05/28 00:28:34;;;;;;;6.53;2.00;;;;;;;;;;5049025;28;20262;-72
2022/05/28 00:31:00;;;;;;;10.67;2.30;;;;;;;;;;5021378;28;20220;-72
2022/05/28 00:33:27;;;;;;;6.63;2.03;;;;;;;;;;5049269;28;20198;-72
2022/05/28 00:35:53;;;;;;;4.73;1.87;;;;;;;;;;5049805;28;20189;-71
2022/05/28 00:38:19;;;;;;;6.77;2.10;;;;;;;;;;5048114;28;20232;-71
2022/05/28 00:40:46;;;;;;;4.13;1.90;;;;;;;;;;5046255;28;20220;-72
2022/05/28 00:43:13;;;;;;;4.50;1.77;;;;;;;;;;5047246;28;20692;-72
2022/05/28 00:45:40;;;;;;;11.13;2.70;;;;;;;;;;5048501;28;20178;-71
2022/05/28 00:48:07;;;;;;;6.50;1.97;;;;;;;;;;5048133;28;20174;-72
2022/05/28 00:50:35;;;;;;;7.03;2.40;;;;;;;;;;5048764;28;20196;-71
2022/05/28 00:53:02;;;;;;;6.97;2.40;;;;;;;;;;5048533;28;20213;-72
2022/05/28 00:55:28;;;;;;;6.37;2.40;;;;;;;;;;5050661;28;20178;-71
2022/05/28 00:57:54;;;;;;;7.43;2.57;;;;;;;;;;5048198;28;20189;-71
2022/05/28 01:00:24;;;;;;;7.13;2.30;;;;;;;;;;5035995;28;20202;-71
2022/05/28 01:02:57;;;;;;;6.10;2.40;;;;;;;;;;5028074;28;20297;-72
2022/05/28 01:05:27;;;;;;;7.60;2.30;;;;;;;;;;5044784;28;20227;-72
2022/05/28 01:07:53;;;;;;;7.07;2.37;;;;;;;;;;5048747;28;20533;-71
2022/05/28 01:10:32;;;;;;;7.10;2.43;;;;;;;;;;5047594;28;20213;-72
2022/05/28 01:13:02;;;;;;;7.33;2.20;;;;;;;;;;5046302;28;20237;-72
2022/05/28 01:15:37;;;;;;;6.13;2.20;;;;;;;;;;5027384;28;20244;-72
2022/05/28 01:18:07;;;;;;;9.53;2.10;;;;;;;;;;5024464;28;20266;-72
2022/05/28 01:20:42;;;;;;;7.67;2.37;;;;;;;;;;5047879;28;20208;-72
2022/05/28 01:23:28;;;;;;;7.87;2.20;;;;;;;;;;5053303;28;20200;-72
2022/05/28 01:25:54;;;;;;;6.73;2.23;;;;;;;;;;5048818;28;20181;-71
2022/05/28 01:28:22;;;;;;;8.67;2.33;;;;;;;;;;5051797;28;20182;-72
2022/05/28 01:30:49;;;;;;;7.77;2.50;;;;;;;;;;5049388;28;20197;-71
2022/05/28 01:33:17;;;;;;;5.20;2.13;;;;;;;;;;5027496;28;20290;-71
2022/05/28 01:35:44;;;;;;;6.43;2.40;;;;;;;;;;5026746;28;20680;-72
2022/05/28 01:38:11;;;;;;;8.63;2.37;;;;;;;;;;5032963;28;20170;-71
2022/05/28 01:40:39;;;;;;;6.07;2.07;;;;;;;;;;5045864;28;20206;-71
2022/05/28 01:43:08;;;;;;;11.37;2.10;;;;;;;;;;5049844;28;20197;-71
2022/05/28 01:45:35;;;;;;;7.80;2.13;;;;;;;;;;5053090;28;20186;-72
2022/05/28 01:48:03;;;;;;;7.27;2.30;;;;;;;;;;5039880;28;20189;-70
2022/05/28 01:50:32;;;;;;;7.63;2.37;;;;;;;;;;5032793;28;20557;-71
2022/05/28 01:53:00;;;;;;;5.37;2.20;;;;;;;;;;5034131;28;20214;-73
2022/05/28 01:55:27;;;;;;;7.47;2.20;;;;;;;;;;5033324;28;20189;-74
2022/05/28 01:57:53;;;;;;;7.43;2.60;;;;;;;;;;5050786;28;20241;-71
2022/05/28 02:00:20;;;;;;;8.13;2.43;;;;;;;;;;5032134;28;20212;-71
2022/05/28 02:02:48;;;;;;;6.27;2.10;;;;;;;;;;5047686;28;20206;-71
2022/05/28 02:05:15;;;;;;;4.67;1.87;;;;;;;;;;5033302;28;20230;-73
2022/05/28 02:07:41;;;;;;;6.77;2.67;;;;;;;;;;5037151;28;20182;-72
2022/05/28 02:10:10;;;;;;;5.43;2.20;;;;;;;;;;5016693;28;20197;-71
2022/05/28 02:13:01;;;;;;;7.47;2.20;;;;;;;;;;5051641;28;20214;-72
2022/05/28 02:15:30;;;;;;;7.53;2.07;;;;;;;;;;5032542;28;20281;-72
2022/05/28 02:17:56;;;;;;;7.10;2.13;;;;;;;;;;5051473;28;20194;-72
2022/05/28 02:20:36;;;;;;;6.70;2.13;;;;;;;;;;5042996;28;20282;-72
2022/05/28 02:23:03;;;;;;;8.63;2.40;;;;;;;;;;5034006;28;20201;-72
2022/05/28 02:25:32;;;;;;;4.40;1.97;;;;;;;;;;5050990;28;20182;-72
2022/05/28 02:27:58;;;;;;;6.47;2.00;;;;;;;;;;5049910;28;20544;-72
2022/05/28 02:30:24;;;;;;;5.63;2.23;;;;;;;;;;5047911;28;20186;-72
2022/05/28 02:32:58;;;;;;;5.87;1.93;;;;;;;;;;5046510;28;20202;-71
2022/05/28 02:35:24;;;;;;;6.07;2.10;;;;;;;;;;5049156;28;20699;-71
2022/05/28 02:37:51;;;;;;;7.90;2.37;;;;;;;;;;5042987;28;20189;-72
2022/05/28 02:40:17;;;;;;;4.23;2.00;;;;;;;;;;5050232;28;20624;-72
2022/05/28 02:42:44;;;;;;;7.43;2.23;;;;;;;;;;5031108;28;20229;-72
2022/05/28 02:45:10;;;;;;;10.37;3.03;;;;;;;;;;5047542;28;20268;-71
2022/05/28 02:47:36;;;;;;;5.97;2.37;;;;;;;;;;5029757;28;20285;-71
2022/05/28 02:50:03;;;;;;;5.57;2.20;;;;;;;;;;5039838;28;20236;-72
2022/05/28 02:52:29;;;;;;;6.10;2.17;;;;;;;;;;5049434;28;20201;-72
2022/05/28 02:54:55;;;;;;;6.50;2.30;;;;;;;;;;5030423;28;20217;-72
2022/05/28 02:57:21;;;;;;;6.77;2.43;;;;;;;;;;5047964;28;20236;-71
2022/05/28 02:59:47;;;;;;;7.17;2.37;;;;;;;;;;5027953;28;20202;-72
2022/05/28 03:02:14;;;;;;;5.07;2.10;;;;;;;;;;5019241;28;20206;-71
2022/05/28 03:04:40;;;;;;;8.97;2.60;;;;;;;;;;5031792;28;20234;-72
2022/05/28 03:07:07;;;;;;;6.93;2.33;;;;;;;;;;5050608;28;20231;-70
2022/05/28 03:09:33;;;;;;;6.87;2.13;;;;;;;;;;5031900;28;20261;-71
2022/05/28 03:12:00;;;;;;;4.57;2.00;;;;;;;;;;5050209;28;20213;-72
2022/05/28 03:14:26;;;;;;;5.93;2.63;;;;;;;;;;5031600;28;20268;-71
2022/05/28 03:16:53;;;;;;;7.50;2.50;;;;;;;;;;5022541;28;20202;-72
2022/05/28 03:19:19;;;;;;;6.20;2.47;;;;;;;;;;5040508;28;20202;-71
2022/05/28 03:21:45;;;;;;;6.87;2.30;;;;;;;;;;5048869;28;20198;-71
2022/05/28 03:24:11;;;;;;;6.87;2.80;;;;;;;;;;5012402;28;20184;-70
2022/05/28 03:26:38;;;;;;;7.20;2.70;;;;;;;;;;5027887;28;20185;-72
2022/05/28 03:29:04;;;;;;;6.00;2.60;;;;;;;;;;5049163;28;20205;-72
2022/05/28 03:31:31;;;;;;;4.40;2.33;;;;;;;;;;5048762;28;20202;-71
2022/05/28 03:33:57;;;;;;;6.33;2.20;;;;;;;;;;5047493;28;20290;-72
2022/05/28 03:36:24;;;;;;;8.73;2.20;;;;;;;;;;5047676;28;20184;-72
2022/05/28 03:38:50;;;;;;;4.53;2.30;;;;;;;;;;5048538;28;20217;-71
2022/05/28 03:41:17;;;;;;;7.57;2.30;;;;;;;;;;5029028;28;20182;-72
2022/05/28 03:43:43;;;;;;;6.73;1.90;;;;;;;;;;5048036;28;20265;-71
2022/05/28 03:46:35;;;;;;;8.47;2.13;;;;;;;;;;5047253;28;20197;-72
2022/05/28 03:49:06;;;;;;;6.00;2.10;;;;;;;;;;5033711;28;20197;-72
2022/05/28 03:51:33;;;;;;;5.17;2.13;;;;;;;;;;5047845;28;20297;-70
2022/05/28 03:53:59;;;;;;;6.63;2.43;;;;;;;;;;5048533;28;20228;-72
2022/05/28 03:56:28;;;;;;;5.30;1.97;;;;;;;;;;5048025;28;20178;-71
2022/05/28 03:58:54;;;;;;;5.87;1.90;;;;;;;;;;5043138;28;20228;-72
2022/05/28 04:01:20;;;;;;;7.87;2.07;;;;;;;;;;5036953;28;20181;-72
2022/05/28 04:03:46;;;;;;;4.47;2.00;;;;;;;;;;5032315;28;20729;-72
2022/05/28 04:06:13;;;;;;;8.07;2.50;;;;;;;;;;5046835;28;20196;-72
2022/05/28 04:08:40;;;;;;;7.03;2.30;;;;;;;;;;5033963;28;20192;-69
2022/05/28 04:11:06;;;;;;;6.27;2.10;;;;;;;;;;5046931;28;20170;-72
2022/05/28 04:13:35;;;;;;;7.63;2.10;;;;;;;;;;5036405;22;20243;-71
2022/05/28 04:16:01;;;;;;;5.90;2.30;;;;;;;;;;5003737;28;20719;-72
2022/05/28 04:18:27;;;;;;;6.33;2.20;;;;;;;;;;5006913;28;20187;-70
2022/05/28 04:20:54;;;;;;;5.60;1.90;;;;;;;;;;5007290;28;20325;-71
2022/05/28 04:23:20;;;;;;;6.00;2.30;;;;;;;;;;5006680;28;20199;-70
2022/05/28 04:25:46;;;;;;;6.70;2.20;;;;;;;;;;5007651;28;20678;-70
2022/05/28 04:28:12;;;;;;;9.70;2.40;;;;;;;;;;5008906;28;20559;-71
2022/05/28 04:30:38;;;;;;;5.93;2.00;;;;;;;;;;5006040;28;20186;-71
2022/05/28 04:33:04;;;;;;;9.37;2.27;;;;;;;;;;5025130;28;20211;-71
2022/05/28 04:35:30;;;;;;;6.27;2.40;;;;;;;;;;5004042;28;20204;-72
2022/05/28 04:37:57;;;;;;;4.77;1.87;;;;;;;;;;5008836;28;20195;-70
2022/05/28 04:40:23;;;;;;;5.57;2.10;;;;;;;;;;5022146;28;20246;-70
2022/05/28 04:42:49;;;;;;;5.97;1.90;;;;;;;;;;5013643;28;20226;-70
2022/05/28 04:45:15;;;;;;;5.57;2.23;;;;;;;;;;5005870;28;20286;-72
2022/05/28 04:47:42;;;;;;;7.47;2.13;;;;;;;;;;5007677;28;20190;-72
2022/05/28 04:50:09;;;;;;;6.33;2.30;;;;;;;;;;5007931;28;20599;-72
2022/05/28 04:52:36;;;;;;;6.20;2.13;;;;;;;;;;4992523;28;20211;-70
2022/05/28 04:55:03;;;;;;;6.60;3.17;;;;;;;;;;5011367;28;20666;-71
2022/05/28 04:57:29;;;;;;;9.60;3.27;;;;;;;;;;5013438;28;20191;-71
2022/05/28 04:59:55;;;;;;;8.67;3.13;;;;;;;;;;5010085;28;20325;-71
2022/05/28 05:02:21;;;;;;;7.30;2.70;;;;;;;;;;5007053;28;20281;-70
2022/05/28 05:04:47;;;;;;;6.07;2.70;;;;;;;;;;5007159;28;20194;-71
2022/05/28 05:07:13;;;;;;;9.20;2.90;;;;;;;;;;5012987;28;20191;-70
2022/05/28 05:09:39;;;;;;;7.83;3.13;;;;;;;;;;5006857;28;20674;-73
2022/05/28 05:12:05;;;;;;;9.23;3.70;;;;;;;;;;5012874;28;20238;-71
2022/05/28 05:14:32;;;;;;;6.40;3.57;;;;;;;;;;5010693;28;20180;-70
2022/05/28 05:16:58;;;;;;;10.17;3.57;;;;;;;;;;5013161;28;20245;-71
2022/05/28 05:19:24;;;;;;;8.17;3.23;;;;;;;;;;5010481;28;20557;-71
2022/05/28 05:21:53;;;;;;;8.00;3.07;;;;;;;;;;5011093;28;20261;-70
2022/05/28 05:24:19;;;;;;;6.63;3.10;;;;;;;;;;5009326;28;20183;-72
2022/05/28 05:26:45;;;;;;;7.53;2.80;;;;;;;;;;5012666;28;20180;-73
2022/05/28 05:29:11;;;;;;;6.00;2.47;;;;;;;;;;5009659;28;20191;-73
2022/05/28 05:31:40;;;;;;;6.57;2.50;;;;;;;;;;5013564;28;20202;-71
2022/05/28 05:34:07;;;;;;;8.80;2.83;;;;;;;;;;5009230;28;20308;-70
2022/05/28 05:36:33;;;;;;;7.53;2.53;;;;;;;;;;5007407;28;20731;-75
2022/05/28 05:38:59;;;;;;;7.90;2.20;;;;;;;;;;5008913;28;20349;-75
2022/05/28 05:41:26;;;;;;;7.77;2.30;;;;;;;;;;5010902;28;20178;-70
2022/05/28 05:43:52;;;;;;;9.27;2.40;;;;;;;;;;5010786;28;20203;-74
2022/05/28 05:46:18;;;;;;;8.27;2.40;;;;;;;;;;5008489;28;20584;-72
2022/05/28 05:48:45;;;;;;;6.63;2.20;;;;;;;;;;5010252;28;20222;-71
2022/05/28 05:51:13;;;;;;;5.60;1.90;;;;;;;;;;4992603;28;20240;-70
2022/05/28 05:53:39;;;;;;;8.90;2.40;;;;;;;;;;5008867;28;20222;-74
2022/05/28 05:56:05;;;;;;;9.20;2.37;;;;;;;;;;5009453;28;20270;-73
2022/05/28 05:58:34;;;;;;;8.43;1.90;;;;;;;;;;5010586;28;20190;-75
2022/05/28 06:01:02;;;;;;;6.37;1.83;;;;;;;;;;5011764;28;20230;-74
2022/05/28 06:03:28;;;;;;;5.67;1.97;;;;;;;;;;5013027;28;20195;-71
2022/05/28 06:06:01;;;;;;;5.27;2.20;;;;;;;;;;5007206;28;20210;-73
2022/05/28 06:08:28;;;;;;;8.07;2.40;;;;;;;;;;5005816;28;20238;-71
2022/05/28 06:10:54;;;;;;;7.70;2.37;;;;;;;;;;5003539;28;20187;-71
2022/05/28 06:13:20;;;;;;;7.07;2.40;;;;;;;;;;5004172;28;20215;-73
2022/05/28 06:15:46;;;;;;;6.87;2.17;;;;;;;;;;5004635;28;20264;-71
2022/05/28 06:18:13;;;;;;;9.70;2.20;;;;;;;;;;5005130;28;20282;-71
2022/05/28 06:20:39;;;;;;;7.57;2.20;;;11.50;91.80;;;;;;5004026;28;20211;-72
2022/05/28 06:23:05;;;;;;;5.57;2.23;;;14.50;65.50;;;;;;5001560;28;20322;-75
2022/05/28 06:25:31;;;;;;;8.57;2.20;;;14.50;64.80;;;;;;5004156;28;20274;-71
2022/05/28 06:27:57;;;;;;;7.37;2.37;;;14.60;63.70;;;;;;5003160;28;20482;-71
2022/05/28 06:30:23;;;;;;;8.53;2.47;;;14.60;63.00;;;;;;5004151;28;20630;-72
2022/05/28 06:32:49;;;;;;;5.00;2.20;;;14.60;63.00;;;;;;5004729;28;20199;-71
2022/05/28 06:35:14;;;;;;;7.03;2.57;;;14.60;63.90;;;;;;5017203;28;20227;-75
2022/05/28 06:37:40;;;;;;;7.57;1.97;;;14.60;63.20;;;;;;5003225;28;20186;-74
2022/05/28 06:40:07;;;;;;;6.07;2.10;;;14.60;62.10;;;;;;5023191;28;20302;-73
2022/05/28 06:42:33;;;;;;;5.17;2.00;;;14.60;62.10;;;;;;5011565;28;20365;-77
2022/05/28 06:44:59;;;;;;;4.93;1.90;;;14.80;62.40;;;;;;5010117;28;20277;-73
2022/05/28 06:47:26;;;;;;;5.27;2.10;;;15.00;61.70;;;;;;5011311;28;20568;-71
2022/05/28 06:52:36;;;;;;;6.10;2.10;;;15.20;60.70;;;;;;5008314;28;20587;-71
2022/05/28 06:55:03;;;;;;;5.70;2.33;;;15.40;60.50;;;;;;5009411;28;20194;-78
2022/05/28 06:57:29;;;;;;;8.97;2.57;;;15.50;60.40;;;;;;5014606;28;20655;-72
2022/05/28 06:59:55;;;;;;;6.07;1.90;;;15.60;59.60;;;;;;5008937;28;20294;-73
2022/05/28 07:02:21;;;;;;;4.10;1.77;;;15.80;58.70;;;;;;5009752;28;20211;-73
2022/05/28 07:04:46;;;;;;;6.17;1.80;;;15.80;58.30;;;;;;5014431;28;20276;-75
2022/05/28 07:07:12;;;;;;;5.23;2.00;;;15.70;58.00;;;;;;5012889;28;20195;-71
2022/05/28 07:09:38;;;;;;;8.20;2.20;;;15.60;58.20;;;;;;5005931;28;20534;-71
2022/05/28 07:12:04;;;;;;;4.60;1.87;;;15.60;58.20;;;;;;5009619;28;20218;-71
2022/05/28 07:14:30;;;;;;;8.77;2.10;;;15.60;58.30;;;;;;5009969;28;20266;-71
2022/05/28 07:16:55;;;;;;;6.30;2.37;;;15.60;57.80;;;;;;5008752;28;20188;-73
2022/05/28 07:19:21;;;;;;;4.83;2.07;;;15.50;57.70;;;;;;5009005;28;20210;-73
2022/05/28 07:21:47;;;;;;;9.20;2.10;;;15.40;58.00;;;;;;5008830;28;20608;-77
2022/05/28 07:24:13;;;;;;;6.53;1.60;;;15.30;57.60;;;;;;5021245;28;20179;-71
2022/05/28 07:26:40;;;;;;;7.27;2.03;;;15.30;57.70;;;;;;5010277;28;20233;-74
2022/05/28 07:29:08;;;;;;;5.43;2.17;;;15.20;57.80;;;;;;5008787;28;20175;-72
2022/05/28 07:31:34;;;;;;;4.67;2.00;;;15.30;58.10;;;;;;5007999;28;20662;-72
2022/05/28 07:34:00;;;;;;;7.43;2.30;;;15.20;57.70;;;;;;5012605;28;20175;-71
2022/05/28 07:36:26;;;;;;;7.90;2.30;;;15.20;57.80;;;;;;5010883;28;20179;-72
2022/05/28 07:38:53;;;;;;;8.77;2.20;;;15.10;57.70;;;;;;5009150;28;20188;-71
2022/05/28 07:41:22;;;;;;;6.73;2.10;;;15.10;57.80;;;;;;5010464;28;20299;-71
2022/05/28 07:43:50;;;;;;;9.83;2.47;;;15.20;58.40;;;;;;5011648;28;20301;-71
2022/05/28 07:46:28;;;;;;;6.17;2.20;;;15.30;58.00;;;;;;5023731;28;20251;-71
2022/05/28 07:48:58;;;;;;;4.27;1.90;;;15.30;57.90;;;;;;5015722;28;20418;-71
2022/05/28 07:51:25;;;;;;;6.67;2.00;;;15.30;57.80;;;;;;5019653;28;20531;-72
2022/05/28 07:53:51;;;;;;;7.80;2.23;;;15.40;57.60;;;;;;5007766;28;20208;-72
2022/05/28 07:56:17;;;;;;;5.70;2.00;;;15.30;57.90;;;;;;5003759;28;20226;-72
2022/05/28 07:58:43;;;;;;;6.70;2.50;;;15.40;58.00;;;;;;5004766;28;20274;-71
2022/05/28 08:01:19;;;;;;;5.23;2.20;;;15.50;57.90;;;;;;4999966;28;20211;-73
2022/05/28 08:03:44;;;;;;;6.93;2.20;;;15.70;57.50;;;;;;5002283;28;20301;-73
2022/05/28 08:06:10;;;;;;;5.03;2.10;;;15.80;57.60;;;;;;5010720;28;20325;-72
2022/05/28 08:08:36;;;;;;;7.37;2.43;;;16.10;57.40;;;;;;5002216;28;20575;-72
2022/05/28 08:11:02;;;;;;;4.47;1.83;;;16.40;56.70;;;;;;5003601;28;20179;-72
2022/05/28 08:13:28;;;;;;;5.60;1.87;;;16.60;55.70;;;;;;5005321;28;20250;-73
2022/05/28 08:15:55;;;;;;;4.83;1.53;;;16.70;54.50;;;;;;5016742;28;20214;-73
2022/05/28 08:18:24;;;;;;;4.63;1.80;;;16.60;54.50;;;;;;5003396;28;20191;-75
2022/05/28 08:23:35;;;;;;;5.53;1.87;;;16.90;54.60;;;;;;5007370;28;20681;-76
2022/05/28 08:26:01;;;;;;;5.80;1.80;;;17.10;54.30;;;;;;5002554;28;20187;-76
2022/05/28 08:28:27;;;;;;;4.63;1.87;;;17.20;53.60;;;;;;5000436;28;20253;-75
2022/05/28 08:30:53;;;;;;;5.00;1.80;;;17.30;53.00;;;;;;5007313;28;20195;-76
2022/05/28 08:33:20;;;;;;;8.10;1.90;;;17.30;52.80;;;;;;5009842;28;20203;-74
2022/05/28 08:35:48;;;;;;;5.17;1.40;;;17.20;53.10;;;;;;5002425;28;20245;-74
2022/05/28 08:38:16;;;;;;;6.50;1.90;;;17.00;53.00;;;;;;5007743;28;20237;-76
2022/05/28 08:40:49;;;;;;;4.97;1.57;;;16.80;52.90;;;;;;5005099;28;20215;-75
2022/05/28 08:43:18;;;;;;;8.63;1.80;;;16.80;53.30;;;;;;5000504;28;20205;-74
2022/05/28 08:45:47;;;;;;;4.57;1.67;;;16.80;53.00;;;;;;5003260;28;20179;-77
2022/05/28 08:48:17;;;;;;;3.13;1.50;;;17.00;52.60;;;;;;5006606;28;20274;-74
2022/05/28 08:50:57;;;;;;;6.80;1.50;;;17.00;53.00;;;;;;5004086;28;20191;-74
2022/05/28 08:53:29;;;;;;;4.53;1.57;;;17.10;52.60;;;;;;5007045;28;20709;-77
2022/05/28 08:55:57;;;;;;;3.33;1.30;;;17.10;52.30;;;;;;5007462;28;20187;-75
2022/05/28 08:58:26;;;;;;;6.83;3.50;;;17.10;52.30;;;;;;5006296;28;20619;-75
2022/05/28 09:01:00;;;;;;;6.20;2.40;;;17.20;51.80;;;;;;5007689;28;20681;-74
2022/05/28 09:03:51;;;;;;;4.40;1.60;;;17.40;51.90;;;;;;5001554;28;20215;-75
2022/05/28 09:06:32;;;;;;;4.90;1.53;;;17.50;51.50;;;;;;5006519;28;20183;-82
2022/05/28 09:08:58;;;;;;;5.37;1.60;;;17.50;51.50;;;;;;5008585;28;20222;-74
2022/05/28 09:11:42;;;;;;;4.57;1.53;;;17.40;51.20;;;;;;5019995;28;20218;-75
2022/05/28 09:14:25;;;;;;;3.03;1.47;;;17.40;51.50;;;;;;5023854;28;20183;-75
2022/05/28 09:17:04;;;;;;;4.40;1.50;;;17.50;52.00;;;;;;5009960;28;20311;-74
2022/05/28 09:19:42;;;;;;;6.47;1.50;;;17.60;52.00;;;;;;5006123;28;20329;-75
2022/05/28 09:22:24;;;;;;;3.20;1.40;;;17.70;51.30;;;;;;5005363;28;20349;-75
2022/05/28 09:24:50;;;;;;;6.47;1.53;;;17.80;50.70;;;;;;5008862;28;20278;-75
2022/05/28 09:27:22;;;;;;;4.47;1.70;;;17.80;50.70;;;;;;5006610;28;20278;-75
2022/05/28 09:29:57;;;;;;;3.57;1.53;;;17.80;50.50;;;;;;5003939;28;20559;-76
2022/05/28 09:32:58;;;;;;;5.97;1.97;;;17.90;51.10;;;;;;5015737;28;20238;-75
2022/05/28 09:35:30;;;;;;;7.03;1.60;;;18.00;50.60;;;;;;5001603;28;20190;-75
2022/05/28 09:38:20;;;;;;;4.70;1.50;;;18.00;50.00;;;;;;5001186;28;20183;-77
2022/05/28 09:40:58;;;;;;;5.40;1.50;;;17.90;50.00;;;;;;5008236;28;20226;-77
2022/05/28 09:43:57;;;;;;;4.23;1.50;;;18.10;49.40;;;;;;5018462;28;20544;-76
2022/05/28 09:46:39;;;;;;;4.30;1.67;;;18.10;49.20;;;;;;5010007;28;20285;-74
2022/05/28 09:49:17;;;;;;;3.03;1.47;;;18.30;48.90;;;;;;5022832;28;20324;-78
2022/05/28 09:52:10;;;;;;;3.03;1.50;;;18.50;48.50;;;;;;5006446;28;20272;-74
2022/05/28 09:54:36;;;;;;;4.20;1.50;;;18.50;48.40;;;;;;5008442;28;20188;-75
2022/05/28 09:57:23;;;;;;;5.27;1.50;;;18.40;48.80;;;;;;5003482;28;20179;-74
2022/05/28 09:59:55;;;;;;;3.57;1.60;;;18.30;49.30;;;;;;5007090;28;20617;-75
2022/05/28 10:02:34;;;;;;;4.70;1.40;;;18.00;49.30;;;;;;5012864;28;20203;-75
2022/05/28 10:05:20;;;;;;;2.43;1.43;;;17.90;49.40;;;;;;5009024;28;20266;-74
2022/05/28 10:07:52;;;;;;;7.23;1.60;;;17.80;49.70;;;;;;5008208;28;20249;-74
2022/05/28 10:10:31;;;;;;;5.07;1.43;;;17.90;49.80;;;;;;5005334;28;20195;-79
2022/05/28 10:13:13;;;;;;;4.63;1.20;;;18.00;49.60;;;;;;5010784;28;20226;-79
2022/05/28 10:15:50;;;;;;;6.63;1.43;;;18.20;49.30;;;;;;5025793;28;20199;-84
2022/05/28 10:18:34;;;;;;;4.40;1.43;;;18.30;48.90;;;;;;5011355;28;20258;-76
2022/05/28 10:21:16;;;;;;;3.97;1.50;;;18.50;49.20;;;;;;5005113;28;20211;-75
2022/05/28 10:23:50;;;;;;;5.13;1.50;;;18.90;48.80;;;;;;5026891;28;20198;-76
2022/05/28 10:26:22;;;;;;;4.63;1.40;;;19.20;48.40;;;;;;5013311;28;20236;-76
2022/05/28 10:28:51;;;;;;;4.37;1.40;;;19.30;47.60;;;;;;5025948;28;20187;-76
2022/05/28 10:31:29;;;;;;;5.47;1.50;;;19.30;47.70;;;;;;4988540;28;20184;-79
2022/05/28 10:33:56;;;;;;;3.53;1.50;;;19.10;48.20;;;;;;4992332;28;20223;-74
2022/05/28 10:36:28;;;;;;;2.63;1.40;;;18.90;47.40;;;;;;5007610;28;20187;-77
2022/05/28 10:39:10;;;;;;;3.70;1.27;;;18.70;47.40;;;;;;5005626;28;20677;-75
2022/05/28 10:41:37;;;;;;;2.20;1.20;;;18.50;46.70;;;;;;5006845;28;20199;-74
2022/05/28 10:44:05;;;;;;;3.40;1.13;;;18.40;46.70;;;;;;5004125;28;20187;-73
2022/05/28 10:46:53;;;;;;;2.63;1.10;;;18.40;46.30;;;;;;5009415;28;20539;-73
2022/05/28 10:49:24;;;;;;;4.50;1.47;;;18.50;46.30;;;;;;5007051;28;20626;-73
2022/05/28 10:52:03;;;;;;;4.93;1.30;;;18.60;46.60;;;;;;5013570;28;20222;-73
2022/05/28 10:54:48;;;;;;;4.97;1.50;;;18.70;46.70;;;;;;5010661;28;20233;-74
2022/05/28 10:57:40;;;;;;;2.47;1.17;;;19.00;46.70;;;;;;5004056;28;20183;-73
2022/05/28 11:00:08;;;;;;;3.60;1.30;;;19.60;46.50;;;;;;5010964;28;20215;-73
2022/05/28 11:03:05;;;;;;;2.50;1.50;;;19.80;45.70;;;;;;5011118;28;20207;-77
2022/05/28 11:06:07;;;;;;;3.10;1.93;;;19.60;45.60;;;;;;5003351;28;20190;-76
2022/05/28 11:08:39;;;;;;;5.20;1.43;;;19.40;45.70;;;;;;5009996;28;20313;-73
2022/05/28 11:11:14;;;;;;;3.30;1.40;;;19.20;46.00;;;;;;5006019;28;20803;-74
2022/05/28 11:14:17;;;;;;;2.70;1.10;;;19.20;46.10;;;;;;5024056;28;20272;-73
2022/05/28 11:17:01;;;;;;;5.30;1.37;;;19.60;46.60;;;;;;5006859;28;20197;-73
2022/05/28 11:19:51;;;;;;;2.50;1.30;;;20.20;45.70;;;;;;5014928;28;20357;-73
2022/05/28 11:22:58;;;;;;;4.33;1.30;;;20.70;45.50;;;;;;5025388;28;20206;-76
2022/05/28 11:25:37;;;;;;;3.33;1.27;;;;;;;;;;5003706;28;20202;-75
2022/05/28 11:28:25;;;;;;;3.10;1.40;;;;;;;;;;5007962;28;20768;-74
2022/05/28 11:31:14;;;;;;;4.40;1.30;;;;;;;;;;5011841;28;20225;-74
2022/05/28 11:33:43;;;;;;;3.03;1.27;;;;;;;;;;5023893;28;20210;-75
2022/05/28 11:36:09;;;;;;;3.73;1.43;;;;;;;;;;5009889;28;20651;-75
2022/05/28 11:38:41;;;;;;;3.00;1.30;;;;;;;;;;5004110;28;20737;-75
2022/05/28 11:41:13;;;;;;;3.87;1.43;;;;;;;;;;5004522;28;20207;-75
2022/05/28 11:43:58;;;;;;;3.10;1.23;;;;;;;;;;5021448;28;20206;-75
2022/05/28 11:46:50;;;;;;;5.17;1.43;;;;;;;;;;5001966;28;23808;-75
2022/05/28 11:52:22;;;;;;;2.53;1.37;;;;;;;;;;5020436;28;20207;-75
2022/05/28 11:54:57;;;;;;;2.80;1.20;;;;;;;;;;5009626;28;20171;-75
2022/05/28 11:57:38;;;;;;;4.57;1.30;;;;;;;;;;5007149;28;20574;-75
2022/05/28 12:00:07;;;;;;;2.03;1.23;;;;;;;;;;5005922;28;20214;-75
2022/05/28 12:02:50;;;;;;;5.23;1.50;;;;;;;;;;5008502;28;20214;-75
2022/05/28 12:05:18;;;;;;;2.40;1.20;;;;;;;;;;5020418;28;20211;-76
2022/05/28 12:07:45;;;;;;;2.97;0.97;;;;;;;;;;5005360;28;20187;-75
2022/05/28 12:10:31;;;;;;;4.37;1.23;;;;;;;;;;5003385;28;20189;-75
2022/05/28 12:12:59;;;;;;;3.50;1.43;;;;;;;;;;5000459;28;20229;-79
2022/05/28 12:15:27;;;;;;;3.77;1.33;;;;;;;;;;5008822;28;20193;-77
2022/05/28 12:18:12;;;;;;;2.03;1.07;;;;;;;;;;5009445;28;20665;-80
2022/05/28 12:20:50;;;;;;;3.27;1.40;;;;;;;;;;5009302;28;20203;-77
2022/05/28 12:23:26;;;;;;;6.00;1.67;;;;;;;;;;5007913;28;20201;-78
2022/05/28 12:25:53;;;;;;;3.77;1.30;;;;;;;;;;5005154;28;20187;-78
2022/05/28 12:28:26;;;;;;;2.53;1.33;;;;;;;;;;5025198;28;20186;-76
2022/05/28 12:30:54;;;;;;;2.40;1.03;;;;;;;;;;5006415;28;20266;-79
2022/05/28 12:33:29;;;;;;;6.20;1.33;;;;;;;;;;5003333;28;20349;-78
2022/05/28 12:36:06;;;;;;;2.43;1.10;;;;;;;;;;5016868;28;20183;-78
2022/05/28 12:38:42;;;;;;;4.40;1.40;;;;;;;;;;5001086;28;20609;-80
2022/05/28 12:41:16;;;;;;;3.33;1.40;;;;;;;;;;5023647;28;20210;-78
2022/05/28 12:43:44;;;;;;;4.03;1.20;;;;;;;;;;5004698;28;20673;-79
2022/05/28 12:46:16;;;;;;;4.50;1.30;;;;;;;;;;5006145;28;20187;-79
2022/05/28 12:48:43;;;;;;;4.10;1.10;;;;;;;;;;5003849;28;20229;-78
2022/05/28 12:51:34;;;;;;;3.67;1.07;;;;;;;;;;5005103;28;20198;-77
2022/05/28 12:54:01;;;;;;;2.33;1.13;;;;;;;;;;5007357;28;20190;-77
2022/05/28 12:56:34;;;;;;;2.13;1.10;;;;;;;;;;5006009;28;20195;-75
2022/05/28 12:59:12;;;;;;;2.77;1.37;;;;;;;;;;5008315;28;20286;-76
2022/05/28 13:01:39;;;;;;;3.73;1.17;;;;;;;;;;5002489;28;20282;-75
2022/05/28 13:04:07;;;;;;;2.23;1.20;;;;;;;;;;4999695;28;20211;-77
2022/05/28 13:06:44;;;;;;;1.80;0.93;;;;;;;;;;5005253;28;20329;-75
2022/05/28 13:09:12;;;;;;;1.80;1.20;;;;;;;;;;5005030;28;20175;-74
2022/05/28 13:11:42;;;;;;;3.07;1.30;;;;;;;;;;5006007;28;20187;-74
2022/05/28 13:14:11;;;;;;;3.83;1.20;;;;;;;;;;5006607;28;20183;-72
2022/05/28 13:16:49;;;;;;;2.93;1.40;;;;;;;;;;5000201;28;21762;-72
2022/05/28 13:19:32;;;;;;;2.25;1.10;;;;;;;;;;5001174;28;20190;-73
2022/05/28 13:21:59;;;;;;;3.50;1.40;;;;;;;;;;5009945;28;20210;-73
2022/05/28 13:24:28;;;;;;;3.57;1.50;;;;;;;;;;5013293;28;20238;-76
2022/05/28 13:26:54;;;;;;;1.80;1.23;;;;;;;;;;5027593;28;20199;-77
2022/05/28 13:29:23;;;;;;;3.77;1.40;;;;;;;;;;5006120;28;20576;-76
2022/05/28 13:31:53;;;;;;;5.17;1.80;;;;;;;;;;5005790;28;20184;-75
2022/05/28 13:34:21;;;;;;;3.27;1.40;;;;;;;;;;5006098;28;20582;-75
2022/05/28 13:36:48;;;;;;;3.57;1.20;;;;;;;;;;5005657;28;20183;-74
2022/05/28 13:39:14;;;;;;;1.50;1.10;;;;;;;;;;5008851;28;20566;-74
2022/05/28 13:41:42;;;;;;;1.43;1.00;;;;;;;;;;5006503;28;20187;-74
2022/05/28 13:44:11;;;;;;;3.37;1.43;;;;;;;;;;5009487;28;20210;-74
2022/05/28 13:46:38;;;;;;;1.73;1.10;;;;;;;;;;5005243;28;20191;-74
2022/05/28 13:49:08;;;;;;;3.07;1.37;;;;;;;;;;5010327;28;20238;-74
2022/05/28 13:51:35;;;;;;;5.37;1.20;;;;;;;;;;5010048;28;20199;-74
2022/05/28 13:54:11;;;;;;;2.50;1.13;;;;;;;;;;5008186;28;20181;-74
2022/05/28 13:56:38;;;;;;;3.37;1.20;;;;;;;;;;5013694;28;20178;-74
2022/05/28 13:59:05;;;;;;;2.27;1.20;;;;;;;;;;5011882;28;20187;-74
2022/05/28 14:01:34;;;;;;;3.73;1.30;;;;;;;;;;5007608;28;20227;-74
2022/05/28 14:04:16;;;;;;;2.67;1.27;;;;;;;;;;5023890;28;20206;-74
2022/05/28 14:06:49;;;;;;;1.83;1.00;;;;;;;;;;5006815;28;20629;-74
2022/05/28 14:09:16;;;;;;;2.53;1.10;;;;;;;;;;5007114;28;20270;-74
2022/05/28 14:11:42;;;;;;;1.40;1.10;;;;;;;;;;5010193;28;20175;-75
2022/05/28 14:14:16;;;;;;;2.17;1.20;;;;;;;;;;5008388;28;20191;-76
2022/05/28 14:16:48;;;;;;;2.77;1.17;;;;;;;;;;5006192;28;20198;-76
2022/05/28 14:19:24;;;;;;;2.60;1.37;;;;;;;;;;5008571;28;20187;-74
2022/05/28 14:21:52;;;;;;;2.57;1.10;;;;;;;;;;4993099;28;20637;-75
2022/05/28 14:24:30;;;;;;;2.53;1.20;;;;;;;;;;4994449;28;20192;-75
2022/05/28 14:27:23;;;;;;;4.43;1.30;;;;;;;;;;4986564;28;20199;-76